createdAt,value
2023-02-11T00:00:42.779Z,22.90
2023-02-11T00:03:11.435Z,21.80
2023-02-11T00:05:41.214Z,22.40
2023-02-11T00:08:09.660Z,21.95
2023-02-11T00:10:38.064Z,22.25
2023-02-11T00:13:06.550Z,21.33
2023-02-11T00:15:34.941Z,21.60
2023-02-11T00:18:03.382Z,20.48
2023-02-11T00:20:31.779Z,20.85
2023-02-11T00:23:01.567Z,21.65
2023-02-11T00:25:30.066Z,21.55
2023-02-11T00:27:59.031Z,21.23
2023-02-11T00:30:27.519Z,18.70
2023-02-11T00:32:55.993Z,20.83
2023-02-11T00:35:24.380Z,19.35
2023-02-11T00:37:54.778Z,20.00
2023-02-11T00:40:24.576Z,19.83
2023-02-11T00:42:53.018Z,19.50
2023-02-11T00:45:22.017Z,20.35
2023-02-11T00:47:50.501Z,20.00
2023-02-11T00:50:18.971Z,18.33
2023-02-11T00:52:47.419Z,19.33
2023-02-11T00:55:15.864Z,19.95
2023-02-11T00:57:45.683Z,18.95
2023-02-11T01:00:15.399Z,18.23
2023-02-11T01:02:43.804Z,18.38
2023-02-11T01:05:12.517Z,18.52
2023-02-11T01:07:41.002Z,18.30
2023-02-11T01:10:09.564Z,18.35
2023-02-11T01:12:37.996Z,18.52
2023-02-11T01:15:08.714Z,17.88
2023-02-11T01:17:37.434Z,19.00
2023-02-11T01:20:06.425Z,17.55
2023-02-11T01:22:37.393Z,17.58
2023-02-11T01:25:06.003Z,16.90
2023-02-11T01:27:34.483Z,18.27
2023-02-11T01:30:03.311Z,17.52
2023-02-11T01:32:33.118Z,17.33
2023-02-11T01:35:01.569Z,17.88
2023-02-11T01:37:30.135Z,17.27
2023-02-11T01:39:58.604Z,18.50
2023-02-11T01:42:27.073Z,17.88
2023-02-11T01:44:56.200Z,17.85
2023-02-11T01:47:24.762Z,17.48
2023-02-11T01:49:57.468Z,16.55
2023-02-11T01:52:27.172Z,18.77
2023-02-11T01:55:15.123Z,19.27
2023-02-11T01:57:46.752Z,18.45
2023-02-11T02:00:17.547Z,17.92
2023-02-11T02:02:50.008Z,17.50
2023-02-11T02:05:24.374Z,17.25
2023-02-11T02:07:55.690Z,17.77
2023-02-11T02:10:26.102Z,17.58
2023-02-11T02:12:54.525Z,17.80
2023-02-11T02:15:25.220Z,18.00
2023-02-11T02:17:59.834Z,17.63
2023-02-11T02:20:45.959Z,16.80
2023-02-11T02:23:32.316Z,16.30
2023-02-11T02:26:17.010Z,17.55
2023-02-11T02:28:59.099Z,16.58
2023-02-11T02:31:36.214Z,17.60
2023-02-11T02:34:07.936Z,15.70
2023-02-11T02:36:38.966Z,17.25
2023-02-11T02:39:09.639Z,16.23
2023-02-11T02:41:39.757Z,16.42
2023-02-11T02:44:09.287Z,15.70
2023-02-11T02:46:38.474Z,16.08
2023-02-11T02:49:14.255Z,15.38
2023-02-11T02:51:57.511Z,16.92
2023-02-11T02:54:32.110Z,16.90
2023-02-11T02:57:03.749Z,16.65
2023-02-11T02:59:39.771Z,15.20
2023-02-11T03:02:11.974Z,16.08
2023-02-11T03:04:45.500Z,16.65
2023-02-11T03:07:15.190Z,16.98
2023-02-11T03:09:46.881Z,16.23
2023-02-11T03:12:15.671Z,17.48
2023-02-11T03:14:44.124Z,16.58
2023-02-11T03:17:12.597Z,16.75
2023-02-11T03:19:43.963Z,16.05
2023-02-11T03:22:15.061Z,16.98
2023-02-11T03:24:43.840Z,17.73
2023-02-11T03:27:14.633Z,15.30
2023-02-11T03:29:45.689Z,16.02
2023-02-11T03:32:16.580Z,15.70
2023-02-11T03:34:48.958Z,17.33
2023-02-11T03:37:20.020Z,17.42
2023-02-11T03:39:49.696Z,18.17
2023-02-11T03:42:18.540Z,17.55
2023-02-11T03:44:49.786Z,16.55
2023-02-11T03:47:18.920Z,16.98
2023-02-11T03:49:51.662Z,16.58
2023-02-11T03:52:20.640Z,17.25
2023-02-11T03:54:51.609Z,16.65
2023-02-11T03:57:20.052Z,18.23
2023-02-11T03:59:52.479Z,17.30
2023-02-11T04:02:21.010Z,16.48
2023-02-11T04:04:50.845Z,16.88
2023-02-11T04:07:19.184Z,17.67
2023-02-11T04:09:47.570Z,17.23
2023-02-11T04:12:15.918Z,16.60
2023-02-11T04:14:44.328Z,18.80
2023-02-11T04:17:12.775Z,18.95
2023-02-11T04:19:41.179Z,18.48
2023-02-11T04:22:10.972Z,18.85
2023-02-11T04:24:39.445Z,18.60
2023-02-11T04:27:07.802Z,19.23
2023-02-11T04:29:36.314Z,18.98
2023-02-11T04:32:04.780Z,19.50
2023-02-11T04:34:33.180Z,18.45
2023-02-11T04:37:01.540Z,19.77
2023-02-11T04:39:31.262Z,20.30
2023-02-11T04:41:59.690Z,19.02
2023-02-11T04:44:28.152Z,19.52
2023-02-11T04:46:56.589Z,19.80
2023-02-11T04:49:24.989Z,19.45
2023-02-11T04:51:53.450Z,20.17
2023-02-11T04:54:22.078Z,20.33
2023-02-11T04:56:52.152Z,20.38
2023-02-11T04:59:20.561Z,19.95
2023-02-11T05:01:49.613Z,20.95
2023-02-11T05:04:18.101Z,20.88
2023-02-11T05:06:46.645Z,23.27
2023-02-11T05:09:15.142Z,21.25
2023-02-11T05:11:43.610Z,21.85
2023-02-11T05:14:13.411Z,22.85
2023-02-11T05:16:41.890Z,23.90
2023-02-11T05:19:10.384Z,23.08
2023-02-11T05:21:38.841Z,23.50
2023-02-11T05:24:07.699Z,26.05
2023-02-11T05:26:36.195Z,26.00
2023-02-11T05:29:04.610Z,26.02
2023-02-11T05:31:34.413Z,27.30
2023-02-11T05:34:04.034Z,25.50
2023-02-11T05:36:33.565Z,27.70
2023-02-11T05:39:02.026Z,27.17
2023-02-11T05:41:30.475Z,26.88
2023-02-11T05:43:59.073Z,27.60
2023-02-11T05:46:27.642Z,26.85
2023-02-11T05:48:57.604Z,25.88
2023-02-11T05:51:26.338Z,25.90
2023-02-11T05:53:54.754Z,27.17
2023-02-11T05:56:23.192Z,28.35
2023-02-11T05:58:51.627Z,26.85
2023-02-11T06:01:20.190Z,26.05
2023-02-11T06:03:51.374Z,25.88
2023-02-11T06:06:21.464Z,25.77
2023-02-11T06:08:49.889Z,27.27
2023-02-11T06:11:18.541Z,25.75
2023-02-11T06:13:46.958Z,26.90
2023-02-11T06:16:15.543Z,25.83
2023-02-11T06:18:44.102Z,26.48
2023-02-11T06:21:12.968Z,24.73
2023-02-11T06:23:43.599Z,24.75
2023-02-11T06:26:17.598Z,25.17
2023-02-11T06:28:46.035Z,23.67
2023-02-11T06:31:14.997Z,22.92
2023-02-11T06:33:44.064Z,24.27
2023-02-11T06:36:14.631Z,24.00
2023-02-11T06:38:44.458Z,23.15
2023-02-11T06:41:13.236Z,23.35
2023-02-11T06:43:41.982Z,23.50
2023-02-11T06:46:10.535Z,24.92
2023-02-11T06:48:39.176Z,23.73
2023-02-11T06:51:09.456Z,24.38
2023-02-11T06:53:39.009Z,23.42
2023-02-11T06:56:09.799Z,23.75
2023-02-11T06:58:38.720Z,23.30
2023-02-11T07:01:07.745Z,23.30
2023-02-11T07:03:36.722Z,23.70
2023-02-11T07:06:05.526Z,23.23
2023-02-11T07:08:34.885Z,23.73
2023-02-11T07:11:03.579Z,24.15
2023-02-11T07:13:33.388Z,22.10
2023-02-11T07:16:01.910Z,21.98
2023-02-11T07:18:30.388Z,23.95
2023-02-11T07:20:58.818Z,23.33
2023-02-11T07:23:27.274Z,23.30
2023-02-11T07:25:55.765Z,22.90
2023-02-11T07:28:24.328Z,21.90
2023-02-11T07:30:54.183Z,22.40
2023-02-11T07:33:22.634Z,21.80
2023-02-11T07:35:51.385Z,21.92
2023-02-11T07:38:19.993Z,24.52
2023-02-11T07:40:48.452Z,22.42
2023-02-11T07:43:16.895Z,23.83
2023-02-11T07:45:45.336Z,22.67
2023-02-11T07:48:15.146Z,24.33
2023-02-11T07:50:43.578Z,24.38
2023-02-11T07:53:12.019Z,22.95
2023-02-11T07:55:40.446Z,24.48
2023-02-11T07:58:08.858Z,22.27
2023-02-11T08:00:37.298Z,23.40
2023-02-11T08:03:08.350Z,24.00
2023-02-11T08:05:40.950Z,24.67
2023-02-11T08:08:09.442Z,23.27
2023-02-11T08:10:38.115Z,23.42
2023-02-11T08:13:06.548Z,25.75
2023-02-11T08:15:34.957Z,26.00
2023-02-11T08:18:03.404Z,26.38
2023-02-11T08:20:32.171Z,25.63
2023-02-11T08:23:02.454Z,25.13
2023-02-11T08:25:30.869Z,23.75
2023-02-11T08:28:00.024Z,24.45
2023-02-11T08:30:28.531Z,24.83
2023-02-11T08:32:57.589Z,24.35
2023-02-11T08:35:26.219Z,25.17
2023-02-11T08:37:54.654Z,26.13
2023-02-11T08:40:25.292Z,25.48
2023-02-11T08:42:53.721Z,25.55
2023-02-11T08:45:22.221Z,24.27
2023-02-11T08:47:51.078Z,24.38
2023-02-11T08:50:19.504Z,25.13
2023-02-11T08:52:48.040Z,24.30
2023-02-11T08:55:16.465Z,24.67
2023-02-11T08:57:46.303Z,25.65
2023-02-11T09:00:15.486Z,24.60
2023-02-11T09:02:43.997Z,26.25
2023-02-11T09:05:12.579Z,25.38
2023-02-11T09:07:41.021Z,26.33
2023-02-11T09:10:09.945Z,24.60
2023-02-11T09:12:38.395Z,25.20
2023-02-11T09:15:08.705Z,25.33
2023-02-11T09:17:37.136Z,23.58
2023-02-11T09:20:05.891Z,25.00
2023-02-11T09:22:34.364Z,24.02
2023-02-11T09:25:03.014Z,25.85
2023-02-11T09:27:31.488Z,24.90
2023-02-11T09:29:59.920Z,24.92
2023-02-11T09:32:29.686Z,25.55
2023-02-11T09:34:58.195Z,26.00
2023-02-11T09:37:26.629Z,24.00
2023-02-11T09:39:55.061Z,25.92
2023-02-11T09:42:47.241Z,26.25
2023-02-11T09:45:17.792Z,26.10
2023-02-11T09:47:50.757Z,25.83
2023-02-11T09:50:22.136Z,26.17
2023-02-11T09:52:53.507Z,26.05
2023-02-11T09:55:24.522Z,26.58
2023-02-11T09:57:52.991Z,26.73
2023-02-11T10:00:22.672Z,24.90
2023-02-11T10:03:00.071Z,27.55
2023-02-11T10:05:41.508Z,25.88
2023-02-11T10:08:13.630Z,27.00
2023-02-11T10:10:51.052Z,26.17
2023-02-11T10:13:33.367Z,25.70
2023-02-11T10:16:05.718Z,26.00
2023-02-11T10:18:47.556Z,25.95
2023-02-11T10:21:21.581Z,25.60
2023-02-11T10:23:52.757Z,24.85
2023-02-11T10:26:21.489Z,26.20
2023-02-11T10:28:51.564Z,25.52
2023-02-11T10:31:22.741Z,26.25
2023-02-11T10:33:55.597Z,26.83
2023-02-11T10:36:26.012Z,26.67
2023-02-11T10:38:54.464Z,25.08
2023-02-11T10:41:24.428Z,26.98
2023-02-11T10:43:53.091Z,27.55
2023-02-11T10:46:23.063Z,26.27
2023-02-11T10:48:54.241Z,27.17
2023-02-11T10:51:23.713Z,28.15
2023-02-11T10:53:52.995Z,28.52
2023-02-11T10:56:27.643Z,27.48
2023-02-11T10:58:57.711Z,26.80
2023-02-11T11:01:38.988Z,27.77
2023-02-11T11:04:21.988Z,28.15
2023-02-11T11:06:50.444Z,27.55
2023-02-11T11:09:29.285Z,27.30
2023-02-11T11:11:57.778Z,28.30
2023-02-11T11:14:29.051Z,27.95
2023-02-11T11:16:57.754Z,28.02
2023-02-11T11:19:27.927Z,27.98
2023-02-11T11:21:56.950Z,28.38
2023-02-11T11:24:29.446Z,28.08
2023-02-11T11:26:59.620Z,28.25
2023-02-11T11:29:32.051Z,28.95
2023-02-11T11:32:04.429Z,27.15
2023-02-11T11:34:35.385Z,27.42
2023-02-11T11:37:11.660Z,28.00
2023-02-11T11:39:40.875Z,27.25
2023-02-11T11:42:25.942Z,26.23
2023-02-11T11:44:58.462Z,28.27
2023-02-11T11:47:38.271Z,29.13
2023-02-11T11:50:30.790Z,27.75
2023-02-11T11:53:04.235Z,28.30
2023-02-11T11:55:34.807Z,27.77
2023-02-11T11:58:03.440Z,28.45
2023-02-11T12:00:35.620Z,28.80
2023-02-11T12:03:14.871Z,29.17
2023-02-11T12:05:45.171Z,27.95
2023-02-11T12:08:18.869Z,28.48
2023-02-11T12:10:55.912Z,29.15
2023-02-11T12:13:32.329Z,30.42
2023-02-11T12:16:05.487Z,29.60
2023-02-11T12:18:47.616Z,29.17
2023-02-11T12:21:26.639Z,30.73
2023-02-11T12:24:01.971Z,30.00
2023-02-11T12:26:33.361Z,30.45
2023-02-11T12:29:05.453Z,29.42
2023-02-11T12:31:40.535Z,30.45
2023-02-11T12:34:18.145Z,31.08
2023-02-11T12:36:54.441Z,30.38
2023-02-11T12:39:32.308Z,30.13
2023-02-11T12:42:34.979Z,29.02
2023-02-11T12:45:10.913Z,29.05
2023-02-11T12:47:43.422Z,29.50
2023-02-11T12:50:16.608Z,29.52
2023-02-11T12:52:50.493Z,29.23
2023-02-11T12:55:22.109Z,30.83
2023-02-11T12:57:50.879Z,29.90
2023-02-11T13:00:20.957Z,28.70
2023-02-11T13:02:54.300Z,27.98
2023-02-11T13:05:25.638Z,29.35
2023-02-11T13:07:56.094Z,29.38
2023-02-11T13:10:28.144Z,30.35
2023-02-11T13:13:15.756Z,30.23
2023-02-11T13:15:44.676Z,30.30
2023-02-11T13:18:19.368Z,29.55
2023-02-11T13:20:52.037Z,28.02
2023-02-11T13:23:25.879Z,27.67
2023-02-11T13:25:59.930Z,29.58
2023-02-11T13:28:36.308Z,28.38
2023-02-11T13:31:07.751Z,28.67
2023-02-11T13:33:37.575Z,28.67
2023-02-11T13:36:14.410Z,29.83
2023-02-11T13:38:43.397Z,29.63
2023-02-11T13:41:21.256Z,30.77
2023-02-11T13:43:59.234Z,31.73
2023-02-11T13:46:28.285Z,29.40
2023-02-11T13:48:57.079Z,28.60
2023-02-11T13:51:37.092Z,31.20
2023-02-11T13:54:06.344Z,28.75
2023-02-11T13:56:37.893Z,29.48
2023-02-11T13:59:06.904Z,30.83
2023-02-11T14:01:42.870Z,30.25
2023-02-11T14:04:42.456Z,31.15
2023-02-11T14:07:44.838Z,30.83
2023-02-11T14:10:40.243Z,30.50
2023-02-11T14:13:19.825Z,31.15
2023-02-11T14:15:48.269Z,30.45
2023-02-11T14:18:35.085Z,29.83
2023-02-11T14:21:13.201Z,31.13
2023-02-11T14:23:42.399Z,28.88
2023-02-11T14:26:31.584Z,29.38
2023-02-11T14:29:05.330Z,28.92
2023-02-11T14:31:39.518Z,29.20
2023-02-11T14:34:17.215Z,29.58
2023-02-11T14:36:56.881Z,29.98
2023-02-11T14:39:30.564Z,28.75
2023-02-11T14:42:02.027Z,29.35
2023-02-11T14:44:33.064Z,27.70
2023-02-11T14:47:01.730Z,28.77
2023-02-11T14:49:33.929Z,29.00
2023-02-11T14:52:05.890Z,27.30
2023-02-11T14:54:35.343Z,27.35
2023-02-11T14:57:11.351Z,27.60
2023-02-11T14:59:41.654Z,28.00
2023-02-11T15:02:26.270Z,27.25
2023-02-11T15:04:55.304Z,27.65
2023-02-11T15:07:23.986Z,28.95
2023-02-11T15:09:55.841Z,28.73
2023-02-11T15:12:26.040Z,29.52
2023-02-11T15:14:56.955Z,29.55
2023-02-11T15:17:26.863Z,28.38
2023-02-11T15:19:56.186Z,29.52
2023-02-11T15:22:26.707Z,30.00
2023-02-11T15:25:03.727Z,29.50
2023-02-11T15:27:39.896Z,29.65
2023-02-11T15:30:25.479Z,29.00
2023-02-11T15:32:58.799Z,29.45
2023-02-11T15:35:28.542Z,28.55
2023-02-11T15:37:58.061Z,28.80
2023-02-11T15:40:29.199Z,28.95
2023-02-11T15:42:59.013Z,29.20
2023-02-11T15:45:31.343Z,30.38
2023-02-11T15:48:01.506Z,31.38
2023-02-11T15:50:31.115Z,29.80
2023-02-11T15:53:01.526Z,29.40
2023-02-11T15:55:31.228Z,29.63
2023-02-11T15:58:01.990Z,31.05
2023-02-11T16:00:34.472Z,30.00
2023-02-11T16:03:02.959Z,30.25
2023-02-11T16:05:33.373Z,28.95
2023-02-11T16:08:05.698Z,29.42
2023-02-11T16:10:36.150Z,28.80
2023-02-11T16:13:05.932Z,30.75
2023-02-11T16:15:46.277Z,27.85
2023-02-11T16:18:16.636Z,27.63
2023-02-11T16:20:48.942Z,27.92
2023-02-11T16:23:22.025Z,29.92
2023-02-11T16:25:50.765Z,30.00
2023-02-11T16:28:19.240Z,30.42
2023-02-11T16:30:53.307Z,27.90
2023-02-11T16:33:22.120Z,29.15
2023-02-11T16:35:50.577Z,29.63
2023-02-11T16:38:19.495Z,30.48
2023-02-11T16:40:49.404Z,30.40
2023-02-11T16:43:21.819Z,29.98
2023-02-11T16:45:51.855Z,30.88
2023-02-11T16:48:20.497Z,32.35
2023-02-11T16:50:53.127Z,31.67
2023-02-11T16:53:23.811Z,31.30
2023-02-11T16:55:52.657Z,30.90
2023-02-11T16:58:21.252Z,31.55
2023-02-11T17:00:51.858Z,31.17
2023-02-11T17:03:23.240Z,32.25
2023-02-11T17:05:55.943Z,32.55
2023-02-11T17:08:24.569Z,30.80
2023-02-11T17:10:53.292Z,31.45
2023-02-11T17:13:22.011Z,30.27
2023-02-11T17:15:52.191Z,31.38
2023-02-11T17:18:20.828Z,31.35
2023-02-11T17:20:49.262Z,30.20
2023-02-11T17:23:17.678Z,30.83
2023-02-11T17:25:46.145Z,31.45
2023-02-11T17:28:14.676Z,30.58
2023-02-11T17:30:44.192Z,31.23
2023-02-11T17:33:14.086Z,30.13
2023-02-11T17:35:42.520Z,32.72
2023-02-11T17:38:10.919Z,30.42
2023-02-11T17:40:39.352Z,33.35
2023-02-11T17:43:07.782Z,34.13
2023-02-11T17:45:37.001Z,32.28
2023-02-11T17:48:05.590Z,32.60
2023-02-11T17:50:38.222Z,32.22
2023-02-11T17:53:06.619Z,31.80
2023-02-11T17:55:35.365Z,32.10
2023-02-11T17:58:03.927Z,33.33
2023-02-11T18:00:32.786Z,33.88
2023-02-11T18:03:02.908Z,33.92
2023-02-11T18:05:35.158Z,32.20
2023-02-11T18:08:05.646Z,34.90
2023-02-11T18:10:34.601Z,33.95
2023-02-11T18:13:03.088Z,33.63
2023-02-11T18:15:31.530Z,33.60
2023-02-11T18:17:59.945Z,33.65
2023-02-11T18:20:28.403Z,33.83
2023-02-11T18:22:56.825Z,33.90
2023-02-11T18:25:26.699Z,33.42
2023-02-11T18:27:55.108Z,33.90
2023-02-11T18:30:24.278Z,33.38
2023-02-11T18:32:55.752Z,33.92
2023-02-11T18:35:24.451Z,33.90
2023-02-11T18:37:53.535Z,34.67
2023-02-11T18:40:22.209Z,34.22
2023-02-11T18:42:52.002Z,35.58
2023-02-11T18:45:20.718Z,34.25
2023-02-11T18:47:49.475Z,33.95
2023-02-11T18:50:17.969Z,33.97
2023-02-11T18:52:46.902Z,34.20
2023-02-11T18:55:16.313Z,34.33
2023-02-11T18:57:44.888Z,34.88
2023-02-11T19:00:15.751Z,35.28
2023-02-11T19:02:44.268Z,35.15
2023-02-11T19:05:13.013Z,36.17
2023-02-11T19:07:41.429Z,36.42
2023-02-11T19:10:10.234Z,36.22
2023-02-11T19:12:39.268Z,37.25
2023-02-11T19:15:08.763Z,37.55
2023-02-11T19:17:38.670Z,36.28
2023-02-11T19:20:07.761Z,35.88
2023-02-11T19:22:36.197Z,37.38
2023-02-11T19:25:04.675Z,35.88
2023-02-11T19:27:33.257Z,36.58
2023-02-11T19:30:01.688Z,35.55
2023-02-11T19:32:30.164Z,36.30
2023-02-11T19:34:59.987Z,37.08
2023-02-11T19:37:28.516Z,38.25
2023-02-11T19:39:56.989Z,38.58
2023-02-11T19:42:27.561Z,36.15
2023-02-11T19:44:57.221Z,35.13
2023-02-11T19:47:27.784Z,37.20
2023-02-11T19:49:56.434Z,37.95
2023-02-11T19:52:26.229Z,36.60
2023-02-11T19:54:54.771Z,39.67
2023-02-11T19:57:23.307Z,37.97
2023-02-11T19:59:54.810Z,37.30
2023-02-11T20:02:23.407Z,36.47
2023-02-11T20:04:51.956Z,39.20
2023-02-11T20:07:20.441Z,37.95
2023-02-11T20:09:50.620Z,38.45
2023-02-11T20:12:19.116Z,37.30
2023-02-11T20:14:47.523Z,39.92
2023-02-11T20:17:15.940Z,39.90
2023-02-11T20:19:44.329Z,38.47
2023-02-11T20:22:12.767Z,37.72
2023-02-11T20:24:41.325Z,37.25
2023-02-11T20:27:11.527Z,38.08
2023-02-11T20:29:40.313Z,38.95
2023-02-11T20:32:10.660Z,38.20
2023-02-11T20:34:39.193Z,38.08
2023-02-11T20:37:08.351Z,37.75
2023-02-11T20:39:40.893Z,37.92
2023-02-11T20:42:12.527Z,37.10
2023-02-11T20:44:41.006Z,38.40
2023-02-11T20:47:09.447Z,38.50
2023-02-11T20:49:37.972Z,38.92
2023-02-11T20:52:08.216Z,39.20
2023-02-11T20:54:36.806Z,38.53
2023-02-11T20:57:05.476Z,39.00
2023-02-11T20:59:35.682Z,37.47
2023-02-11T21:02:04.315Z,37.92
2023-02-11T21:04:33.592Z,39.30
2023-02-11T21:07:02.892Z,38.35
2023-02-11T21:09:32.400Z,37.75
2023-02-11T21:12:01.366Z,37.90
2023-02-11T21:14:30.671Z,36.70
2023-02-11T21:17:00.877Z,36.58
2023-02-11T21:19:29.388Z,36.85
2023-02-11T21:22:00.777Z,37.78
2023-02-11T21:24:30.998Z,35.72
2023-02-11T21:26:59.964Z,35.33
2023-02-11T21:29:28.766Z,38.55
2023-02-11T21:31:57.295Z,38.42
2023-02-11T21:34:27.486Z,37.85
2023-02-11T21:36:56.227Z,37.28
2023-02-11T21:39:24.977Z,36.85
2023-02-11T21:41:53.462Z,37.88
2023-02-11T21:44:21.963Z,37.53
2023-02-11T21:46:50.825Z,39.17
2023-02-11T21:49:21.432Z,37.72
2023-02-11T21:51:51.460Z,37.17
2023-02-11T21:54:20.206Z,37.30
2023-02-11T21:56:51.693Z,36.92
2023-02-11T21:59:20.189Z,38.38
2023-02-11T22:01:48.640Z,37.50
2023-02-11T22:04:17.187Z,37.53
2023-02-11T22:06:45.736Z,37.95
2023-02-11T22:09:15.741Z,36.22
2023-02-11T22:11:44.456Z,37.20
2023-02-11T22:14:12.967Z,36.65
2023-02-11T22:16:41.543Z,38.25
2023-02-11T22:19:10.863Z,36.85
2023-02-11T22:21:39.369Z,37.10
2023-02-11T22:24:08.112Z,37.65
2023-02-11T22:26:37.907Z,38.47
2023-02-11T22:29:06.613Z,37.42
2023-02-11T22:31:36.280Z,36.92
2023-02-11T22:34:05.862Z,37.38
2023-02-11T22:36:35.009Z,37.45
2023-02-11T22:39:03.880Z,38.10
2023-02-11T22:41:32.671Z,38.08
2023-02-11T22:44:02.830Z,36.30
2023-02-11T22:46:31.569Z,35.97
2023-02-11T22:49:00.161Z,36.17
2023-02-11T22:51:29.600Z,35.00
2023-02-11T22:53:59.118Z,34.85
2023-02-11T22:56:27.999Z,35.38
2023-02-11T22:58:58.944Z,35.80
2023-02-11T23:01:29.126Z,35.03
2023-02-11T23:03:57.605Z,35.67
2023-02-11T23:06:26.173Z,35.95
2023-02-11T23:08:54.642Z,37.10
2023-02-11T23:11:23.891Z,35.58
2023-02-11T23:13:52.941Z,35.15
2023-02-11T23:16:22.292Z,35.72
2023-02-11T23:18:52.452Z,36.15
2023-02-11T23:21:22.190Z,37.65
2023-02-11T23:23:51.108Z,37.33
2023-02-11T23:26:19.926Z,35.50
2023-02-11T23:28:48.808Z,36.08
2023-02-11T23:31:18.397Z,35.58
2023-02-11T23:36:23.933Z,36.97
2023-02-11T23:38:53.234Z,36.85
2023-02-11T23:41:22.249Z,37.17
2023-02-11T23:43:51.868Z,36.72
2023-02-11T23:46:21.908Z,36.67
2023-02-11T23:48:50.894Z,35.42
2023-02-11T23:51:19.783Z,36.45
2023-02-11T23:53:50.397Z,36.25
2023-02-11T23:56:19.738Z,36.72
2023-02-11T23:58:49.232Z,34.10
